sensor_id;sensor_type;location;lat;lon;timestamp;P1;durP1;ratioP1;P2;durP2;ratioP2
59653;SDS011;66556;52.008;5.432;2023-04-02T00:00:00;14.4;;;12.9;;
59653;SDS011;66556;52.008;5.432;2023-04-02T00:03:32;13.8;;;12.3;;
59653;SDS011;66556;52.008;5.432;2023-04-02T00:05:54;14.2;;;12.7;;
59653;SDS011;66556;52.008;5.432;2023-04-02T00:07:30;14.4;;;13.0;;
59653;SDS011;66556;52.008;5.432;2023-04-02T00:09:16;14.1;;;12.6;;
59653;SDS011;66556;52.008;5.432;2023-04-02T00:11:26;15.0;;;13.2;;
59653;SDS011;66556;52.008;5.432;2023-04-02T00:13:16;13.1;;;11.8;;
59653;SDS011;66556;52.008;5.432;2023-04-02T00:14:59;14.5;;;12.3;;
59653;SDS011;66556;52.008;5.432;2023-04-02T00:18:12;14.2;;;12.7;;
59653;SDS011;66556;52.008;5.432;2023-04-02T00:19:52;13.1;;;11.8;;
59653;SDS011;66556;52.008;5.432;2023-04-02T00:21:34;14.4;;;12.5;;
59653;SDS011;66556;52.008;5.432;2023-04-02T00:23:13;12.8;;;11.5;;
59653;SDS011;66556;52.008;5.432;2023-04-02T00:26:30;15.0;;;13.2;;
59653;SDS011;66556;52.008;5.432;2023-04-02T00:28:11;14.0;;;12.4;;
59653;SDS011;66556;52.008;5.432;2023-04-02T00:29:50;14.3;;;12.8;;
59653;SDS011;66556;52.008;5.432;2023-04-02T00:31:28;14.0;;;12.3;;
59653;SDS011;66556;52.008;5.432;2023-04-02T00:34:50;14.4;;;12.6;;
59653;SDS011;66556;52.008;5.432;2023-04-02T00:36:28;15.5;;;12.7;;
59653;SDS011;66556;52.008;5.432;2023-04-02T00:38:09;16.11;;;12.9;;
59653;SDS011;66556;52.008;5.432;2023-04-02T00:39:57;14.5;;;13.0;;
59653;SDS011;66556;52.008;5.432;2023-04-02T00:43:13;14.5;;;13.0;;
59653;SDS011;66556;52.008;5.432;2023-04-02T00:44:51;16.5;;;13.9;;
59653;SDS011;66556;52.008;5.432;2023-04-02T00:46:30;13.3;;;12.0;;
59653;SDS011;66556;52.008;5.432;2023-04-02T00:48:14;13.3;;;11.9;;
59653;SDS011;66556;52.008;5.432;2023-04-02T00:51:43;13.5;;;12.1;;
59653;SDS011;66556;52.008;5.432;2023-04-02T00:53:25;13.0;;;11.6;;
59653;SDS011;66556;52.008;5.432;2023-04-02T00:55:05;16.4;;;13.3;;
59653;SDS011;66556;52.008;5.432;2023-04-02T00:56:49;16.7;;;13.2;;
59653;SDS011;66556;52.008;5.432;2023-04-02T00:58:29;14.9;;;12.7;;
59653;SDS011;66556;52.008;5.432;2023-04-02T01:01:58;18.0;;;14.4;;
59653;SDS011;66556;52.008;5.432;2023-04-02T01:03:56;16.0;;;14.3;;
59653;SDS011;66556;52.008;5.432;2023-04-02T01:05:36;18.91;;;14.5;;
59653;SDS011;66556;52.008;5.432;2023-04-02T01:07:13;18.11;;;15.2;;
59653;SDS011;66556;52.008;5.432;2023-04-02T01:10:50;18.3;;;14.1;;
59653;SDS011;66556;52.008;5.432;2023-04-02T01:12:39;15.2;;;13.2;;
59653;SDS011;66556;52.008;5.432;2023-04-02T01:14:31;15.9;;;13.7;;
59653;SDS011;66556;52.008;5.432;2023-04-02T01:16:23;14.9;;;12.5;;
59653;SDS011;66556;52.008;5.432;2023-04-02T01:18:13;18.0;;;13.7;;
59653;SDS011;66556;52.008;5.432;2023-04-02T01:20:22;16.2;;;13.5;;
59653;SDS011;66556;52.008;5.432;2023-04-02T01:23:30;15.5;;;12.6;;
59653;SDS011;66556;52.008;5.432;2023-04-02T01:25:14;15.5;;;12.7;;
59653;SDS011;66556;52.008;5.432;2023-04-02T01:26:59;13.5;;;12.1;;
59653;SDS011;66556;52.008;5.432;2023-04-02T01:28:44;14.2;;;12.2;;
59653;SDS011;66556;52.008;5.432;2023-04-02T01:30:30;14.8;;;12.9;;
59653;SDS011;66556;52.008;5.432;2023-04-02T01:32:08;15.2;;;12.6;;
59653;SDS011;66556;52.008;5.432;2023-04-02T01:35:24;14.8;;;11.5;;
59653;SDS011;66556;52.008;5.432;2023-04-02T01:37:09;12.0;;;10.5;;
59653;SDS011;66556;52.008;5.432;2023-04-02T01:39:01;12.1;;;9.9;;
59653;SDS011;66556;52.008;5.432;2023-04-02T01:40:48;11.8;;;10.1;;
59653;SDS011;66556;52.008;5.432;2023-04-02T01:42:35;12.1;;;9.9;;
59653;SDS011;66556;52.008;5.432;2023-04-02T01:46:04;11.3;;;10.1;;
59653;SDS011;66556;52.008;5.432;2023-04-02T01:47:59;14.2;;;11.6;;
59653;SDS011;66556;52.008;5.432;2023-04-02T01:49:37;12.6;;;11.3;;
59653;SDS011;66556;52.008;5.432;2023-04-02T01:51:24;13.1;;;11.6;;
59653;SDS011;66556;52.008;5.432;2023-04-02T01:53:04;12.8;;;11.5;;
59653;SDS011;66556;52.008;5.432;2023-04-02T01:56:21;15.3;;;11.4;;
59653;SDS011;66556;52.008;5.432;2023-04-02T01:57:59;13.6;;;12.0;;
59653;SDS011;66556;52.008;5.432;2023-04-02T01:59:36;15.1;;;12.2;;
59653;SDS011;66556;52.008;5.432;2023-04-02T02:02:53;15.9;;;12.0;;
59653;SDS011;66556;52.008;5.432;2023-04-02T02:04:30;15.2;;;11.7;;
59653;SDS011;66556;52.008;5.432;2023-04-02T02:06:08;13.9;;;11.9;;
59653;SDS011;66556;52.008;5.432;2023-04-02T02:07:49;13.7;;;11.5;;
59653;SDS011;66556;52.008;5.432;2023-04-02T02:11:07;15.0;;;11.7;;
59653;SDS011;66556;52.008;5.432;2023-04-02T02:12:49;16.3;;;12.5;;
59653;SDS011;66556;52.008;5.432;2023-04-02T02:14:26;16.61;;;12.3;;
59653;SDS011;66556;52.008;5.432;2023-04-02T02:16:05;17.11;;;12.4;;
59653;SDS011;66556;52.008;5.432;2023-04-02T02:19:34;16.5;;;12.3;;
59653;SDS011;66556;52.008;5.432;2023-04-02T02:21:14;16.11;;;12.6;;
59653;SDS011;66556;52.008;5.432;2023-04-02T02:23:03;17.11;;;12.5;;
59653;SDS011;66556;52.008;5.432;2023-04-02T02:24:40;16.7;;;11.3;;
59653;SDS011;66556;52.008;5.432;2023-04-02T02:27:57;16.4;;;12.4;;
59653;SDS011;66556;52.008;5.432;2023-04-02T02:29:37;11.3;;;9.5;;
59653;SDS011;66556;52.008;5.432;2023-04-02T02:31:18;14.2;;;11.2;;
59653;SDS011;66556;52.008;5.432;2023-04-02T02:33:00;13.7;;;11.7;;
59653;SDS011;66556;52.008;5.432;2023-04-02T02:34:42;16.2;;;11.8;;
59653;SDS011;66556;52.008;5.432;2023-04-02T02:38:19;15.7;;;12.2;;
59653;SDS011;66556;52.008;5.432;2023-04-02T02:40:51;17.8;;;12.9;;
59653;SDS011;66556;52.008;5.432;2023-04-02T02:42:33;16.0;;;12.5;;
59653;SDS011;66556;52.008;5.432;2023-04-02T02:44:15;13.6;;;11.5;;
59653;SDS011;66556;52.008;5.432;2023-04-02T02:45:56;15.7;;;11.7;;
59653;SDS011;66556;52.008;5.432;2023-04-02T02:47:33;15.2;;;11.5;;
59653;SDS011;66556;52.008;5.432;2023-04-02T02:50:53;12.6;;;10.6;;
59653;SDS011;66556;52.008;5.432;2023-04-02T02:52:34;11.6;;;10.3;;
59653;SDS011;66556;52.008;5.432;2023-04-02T02:54:11;13.0;;;10.21;;
59653;SDS011;66556;52.008;5.432;2023-04-02T02:55:52;15.8;;;10.9;;
59653;SDS011;66556;52.008;5.432;2023-04-02T02:59:15;12.5;;;10.4;;
59653;SDS011;66556;52.008;5.432;2023-04-02T03:00:54;14.1;;;10.21;;
59653;SDS011;66556;52.008;5.432;2023-04-02T03:02:30;13.7;;;10.8;;
59653;SDS011;66556;52.008;5.432;2023-04-02T03:04:10;14.2;;;10.9;;
59653;SDS011;66556;52.008;5.432;2023-04-02T03:07:27;14.8;;;11.1;;
59653;SDS011;66556;52.008;5.432;2023-04-02T03:09:08;14.5;;;11.4;;
59653;SDS011;66556;52.008;5.432;2023-04-02T03:10:53;13.9;;;10.6;;
59653;SDS011;66556;52.008;5.432;2023-04-02T03:12:38;14.9;;;11.4;;
59653;SDS011;66556;52.008;5.432;2023-04-02T03:16:06;13.3;;;10.7;;
59653;SDS011;66556;52.008;5.432;2023-04-02T03:17:49;14.7;;;11.1;;
59653;SDS011;66556;52.008;5.432;2023-04-02T03:19:33;14.1;;;10.9;;
59653;SDS011;66556;52.008;5.432;2023-04-02T03:21:19;16.9;;;11.9;;
59653;SDS011;66556;52.008;5.432;2023-04-02T03:23:05;17.3;;;11.6;;
59653;SDS011;66556;52.008;5.432;2023-04-02T03:26:34;16.3;;;10.6;;
59653;SDS011;66556;52.008;5.432;2023-04-02T03:28:17;17.0;;;10.9;;
59653;SDS011;66556;52.008;5.432;2023-04-02T03:30:02;16.8;;;10.8;;
59653;SDS011;66556;52.008;5.432;2023-04-02T03:32:02;16.4;;;11.1;;
59653;SDS011;66556;52.008;5.432;2023-04-02T03:33:42;20.2;;;12.1;;
59653;SDS011;66556;52.008;5.432;2023-04-02T03:35:26;17.41;;;11.3;;
59653;SDS011;66556;52.008;5.432;2023-04-02T03:38:54;19.0;;;12.4;;
59653;SDS011;66556;52.008;5.432;2023-04-02T03:40:37;17.2;;;11.8;;
59653;SDS011;66556;52.008;5.432;2023-04-02T03:42:18;17.5;;;11.5;;
59653;SDS011;66556;52.008;5.432;2023-04-02T03:43:58;14.7;;;11.5;;
59653;SDS011;66556;52.008;5.432;2023-04-02T03:47:19;14.9;;;11.0;;
59653;SDS011;66556;52.008;5.432;2023-04-02T03:49:10;14.4;;;11.7;;
59653;SDS011;66556;52.008;5.432;2023-04-02T03:50:55;14.4;;;10.5;;
59653;SDS011;66556;52.008;5.432;2023-04-02T03:52:35;15.2;;;10.7;;
59653;SDS011;66556;52.008;5.432;2023-04-02T03:54:14;12.8;;;10.5;;
59653;SDS011;66556;52.008;5.432;2023-04-02T03:57:31;14.4;;;10.5;;
59653;SDS011;66556;52.008;5.432;2023-04-02T03:59:14;13.4;;;11.2;;
59653;SDS011;66556;52.008;5.432;2023-04-02T04:01:03;12.6;;;10.21;;
59653;SDS011;66556;52.008;5.432;2023-04-02T04:02:46;15.2;;;10.21;;
59653;SDS011;66556;52.008;5.432;2023-04-02T04:06:06;13.5;;;10.4;;
59653;SDS011;66556;52.008;5.432;2023-04-02T04:07:45;11.7;;;9.9;;
59653;SDS011;66556;52.008;5.432;2023-04-02T04:09:27;12.4;;;9.81;;
59653;SDS011;66556;52.008;5.432;2023-04-02T04:11:08;14.0;;;10.6;;
59653;SDS011;66556;52.008;5.432;2023-04-02T04:14:30;14.2;;;10.21;;
59653;SDS011;66556;52.008;5.432;2023-04-02T04:16:10;15.7;;;11.2;;
59653;SDS011;66556;52.008;5.432;2023-04-02T04:17:52;16.0;;;11.3;;
59653;SDS011;66556;52.008;5.432;2023-04-02T04:19:37;13.6;;;10.4;;
59653;SDS011;66556;52.008;5.432;2023-04-02T04:23:06;17.11;;;11.3;;
59653;SDS011;66556;52.008;5.432;2023-04-02T04:24:45;15.0;;;10.9;;
59653;SDS011;66556;52.008;5.432;2023-04-02T04:26:23;15.2;;;10.9;;
59653;SDS011;66556;52.008;5.432;2023-04-02T04:28:09;15.9;;;11.0;;
59653;SDS011;66556;52.008;5.432;2023-04-02T04:29:56;16.0;;;11.0;;
59653;SDS011;66556;52.008;5.432;2023-04-02T04:33:21;14.8;;;11.1;;
59653;SDS011;66556;52.008;5.432;2023-04-02T04:35:03;14.9;;;10.9;;
59653;SDS011;66556;52.008;5.432;2023-04-02T04:36:43;13.1;;;11.1;;
59653;SDS011;66556;52.008;5.432;2023-04-02T04:38:27;14.9;;;11.0;;
59653;SDS011;66556;52.008;5.432;2023-04-02T04:41:51;14.6;;;11.3;;
59653;SDS011;66556;52.008;5.432;2023-04-02T04:43:36;13.8;;;10.8;;
59653;SDS011;66556;52.008;5.432;2023-04-02T04:45:26;12.0;;;10.21;;
59653;SDS011;66556;52.008;5.432;2023-04-02T04:47:14;13.3;;;10.0;;
59653;SDS011;66556;52.008;5.432;2023-04-02T04:48:56;13.1;;;9.71;;
59653;SDS011;66556;52.008;5.432;2023-04-02T04:52:22;13.0;;;9.81;;
59653;SDS011;66556;52.008;5.432;2023-04-02T04:54:01;13.9;;;9.5;;
59653;SDS011;66556;52.008;5.432;2023-04-02T04:55:38;14.4;;;10.7;;
59653;SDS011;66556;52.008;5.432;2023-04-02T04:57:21;16.4;;;10.5;;
59653;SDS011;66556;52.008;5.432;2023-04-02T04:59:05;15.4;;;10.3;;
59653;SDS011;66556;52.008;5.432;2023-04-02T05:02:37;14.2;;;9.6;;
59653;SDS011;66556;52.008;5.432;2023-04-02T05:04:21;13.4;;;9.9;;
59653;SDS011;66556;52.008;5.432;2023-04-02T05:06:05;12.7;;;9.6;;
59653;SDS011;66556;52.008;5.432;2023-04-02T05:07:48;12.9;;;9.9;;
59653;SDS011;66556;52.008;5.432;2023-04-02T05:11:12;15.3;;;10.1;;
59653;SDS011;66556;52.008;5.432;2023-04-02T05:12:57;13.0;;;8.9;;
59653;SDS011;66556;52.008;5.432;2023-04-02T05:14:39;12.0;;;8.4;;
59653;SDS011;66556;52.008;5.432;2023-04-02T05:16:24;10.7;;;6.6;;
59653;SDS011;66556;52.008;5.432;2023-04-02T05:18:10;11.3;;;6.4;;
59653;SDS011;66556;52.008;5.432;2023-04-02T05:21:39;9.4;;;6.7;;
59653;SDS011;66556;52.008;5.432;2023-04-02T05:23:21;11.4;;;6.9;;
59653;SDS011;66556;52.008;5.432;2023-04-02T05:25:08;11.8;;;6.1;;
59653;SDS011;66556;52.008;5.432;2023-04-02T05:26:52;10.6;;;5.5;;
59653;SDS011;66556;52.008;5.432;2023-04-02T05:28:37;9.5;;;5.6;;
59653;SDS011;66556;52.008;5.432;2023-04-02T05:32:33;11.2;;;5.8;;
59653;SDS011;66556;52.008;5.432;2023-04-02T05:36:01;8.9;;;5.0;;
59653;SDS011;66556;52.008;5.432;2023-04-02T05:37:40;7.5;;;5.0;;
59653;SDS011;66556;52.008;5.432;2023-04-02T05:39:19;9.6;;;4.91;;
59653;SDS011;66556;52.008;5.432;2023-04-02T05:40:58;9.9;;;5.3;;
59653;SDS011;66556;52.008;5.432;2023-04-02T05:44:19;10.1;;;5.11;;
59653;SDS011;66556;52.008;5.432;2023-04-02T05:46:02;9.1;;;5.11;;
59653;SDS011;66556;52.008;5.432;2023-04-02T05:47:50;7.9;;;5.2;;
59653;SDS011;66556;52.008;5.432;2023-04-02T05:49:30;7.5;;;4.7;;
59653;SDS011;66556;52.008;5.432;2023-04-02T05:52:59;9.31;;;4.91;;
59653;SDS011;66556;52.008;5.432;2023-04-02T05:54:42;11.8;;;5.3;;
59653;SDS011;66556;52.008;5.432;2023-04-02T05:56:25;9.31;;;5.11;;
59653;SDS011;66556;52.008;5.432;2023-04-02T05:58:05;10.7;;;5.0;;
59653;SDS011;66556;52.008;5.432;2023-04-02T05:59:50;9.0;;;5.11;;
59653;SDS011;66556;52.008;5.432;2023-04-02T06:03:15;8.5;;;4.8;;
59653;SDS011;66556;52.008;5.432;2023-04-02T06:05:00;8.9;;;5.0;;
59653;SDS011;66556;52.008;5.432;2023-04-02T06:06:42;10.3;;;5.11;;
59653;SDS011;66556;52.008;5.432;2023-04-02T06:08:23;15.4;;;5.11;;
59653;SDS011;66556;52.008;5.432;2023-04-02T06:11:49;8.4;;;4.61;;
59653;SDS011;66556;52.008;5.432;2023-04-02T06:13:31;7.0;;;3.9;;
59653;SDS011;66556;52.008;5.432;2023-04-02T06:15:11;8.6;;;4.3;;
59653;SDS011;66556;52.008;5.432;2023-04-02T06:16:48;9.71;;;4.2;;
59653;SDS011;66556;52.008;5.432;2023-04-02T06:20:05;11.3;;;4.2;;
59653;SDS011;66556;52.008;5.432;2023-04-02T06:21:43;13.8;;;5.5;;
59653;SDS011;66556;52.008;5.432;2023-04-02T06:23:22;9.21;;;3.9;;
59653;SDS011;66556;52.008;5.432;2023-04-02T06:25:04;8.71;;;3.7;;
59653;SDS011;66556;52.008;5.432;2023-04-02T06:28:32;8.81;;;3.6;;
59653;SDS011;66556;52.008;5.432;2023-04-02T06:31:57;9.71;;;3.6;;
59653;SDS011;66556;52.008;5.432;2023-04-02T06:33:36;9.4;;;3.8;;
59653;SDS011;66556;52.008;5.432;2023-04-02T06:36:53;11.2;;;4.1;;
59653;SDS011;66556;52.008;5.432;2023-04-02T06:38:32;9.6;;;4.2;;
59653;SDS011;66556;52.008;5.432;2023-04-02T06:40:21;10.1;;;3.9;;
59653;SDS011;66556;52.008;5.432;2023-04-02T06:42:12;9.81;;;3.6;;
59653;SDS011;66556;52.008;5.432;2023-04-02T06:43:53;7.1;;;3.3;;
59653;SDS011;66556;52.008;5.432;2023-04-02T06:47:20;7.8;;;3.5;;
59653;SDS011;66556;52.008;5.432;2023-04-02T06:49:05;8.81;;;3.6;;
59653;SDS011;66556;52.008;5.432;2023-04-02T06:50:53;8.4;;;3.0;;
59653;SDS011;66556;52.008;5.432;2023-04-02T06:52:35;7.6;;;3.3;;
59653;SDS011;66556;52.008;5.432;2023-04-02T06:54:18;9.0;;;3.3;;
59653;SDS011;66556;52.008;5.432;2023-04-02T06:57:39;11.1;;;3.6;;
59653;SDS011;66556;52.008;5.432;2023-04-02T06:59:15;6.6;;;3.1;;
59653;SDS011;66556;52.008;5.432;2023-04-02T07:00:53;9.31;;;3.2;;
59653;SDS011;66556;52.008;5.432;2023-04-02T07:02:31;10.21;;;3.3;;
59653;SDS011;66556;52.008;5.432;2023-04-02T07:05:50;7.9;;;3.6;;
59653;SDS011;66556;52.008;5.432;2023-04-02T07:07:27;10.8;;;3.4;;
59653;SDS011;66556;52.008;5.432;2023-04-02T07:09:03;11.9;;;3.7;;
59653;SDS011;66556;52.008;5.432;2023-04-02T07:12:17;9.9;;;3.4;;
59653;SDS011;66556;52.008;5.432;2023-04-02T07:13:58;10.3;;;3.7;;
59653;SDS011;66556;52.008;5.432;2023-04-02T07:15:35;6.9;;;3.0;;
59653;SDS011;66556;52.008;5.432;2023-04-02T07:17:13;8.31;;;4.0;;
59653;SDS011;66556;52.008;5.432;2023-04-02T07:20:30;7.1;;;3.5;;
59653;SDS011;66556;52.008;5.432;2023-04-02T07:22:08;9.31;;;3.6;;
59653;SDS011;66556;52.008;5.432;2023-04-02T07:23:44;7.0;;;3.4;;
59653;SDS011;66556;52.008;5.432;2023-04-02T07:26:58;9.9;;;3.6;;
59653;SDS011;66556;52.008;5.432;2023-04-02T07:28:34;11.1;;;4.5;;
59653;SDS011;66556;52.008;5.432;2023-04-02T07:30:10;12.0;;;4.91;;
59653;SDS011;66556;52.008;5.432;2023-04-02T07:31:47;9.81;;;3.8;;
59653;SDS011;66556;52.008;5.432;2023-04-02T07:35:04;7.0;;;3.9;;
59653;SDS011;66556;52.008;5.432;2023-04-02T07:36:42;8.1;;;3.7;;
59653;SDS011;66556;52.008;5.432;2023-04-02T07:38:18;10.6;;;4.0;;
59653;SDS011;66556;52.008;5.432;2023-04-02T07:41:32;9.6;;;3.4;;
59653;SDS011;66556;52.008;5.432;2023-04-02T07:43:08;8.31;;;4.0;;
59653;SDS011;66556;52.008;5.432;2023-04-02T07:44:45;8.1;;;3.6;;
59653;SDS011;66556;52.008;5.432;2023-04-02T07:48:02;8.6;;;3.7;;
59653;SDS011;66556;52.008;5.432;2023-04-02T07:49:39;7.4;;;3.5;;
59653;SDS011;66556;52.008;5.432;2023-04-02T07:51:16;10.1;;;4.3;;
59653;SDS011;66556;52.008;5.432;2023-04-02T07:52:55;11.2;;;4.0;;
59653;SDS011;66556;52.008;5.432;2023-04-02T07:56:11;8.31;;;4.3;;
59653;SDS011;66556;52.008;5.432;2023-04-02T07:57:50;10.3;;;4.0;;
59653;SDS011;66556;52.008;5.432;2023-04-02T07:59:28;7.2;;;4.1;;
59653;SDS011;66556;52.008;5.432;2023-04-02T08:01:10;8.9;;;3.8;;
59653;SDS011;66556;52.008;5.432;2023-04-02T08:04:28;8.9;;;3.8;;
59653;SDS011;66556;52.008;5.432;2023-04-02T08:06:05;9.31;;;4.61;;
59653;SDS011;66556;52.008;5.432;2023-04-02T08:07:42;10.4;;;4.91;;
59653;SDS011;66556;52.008;5.432;2023-04-02T08:10:56;7.0;;;4.2;;
59653;SDS011;66556;52.008;5.432;2023-04-02T08:12:32;9.6;;;4.5;;
59653;SDS011;66556;52.008;5.432;2023-04-02T08:14:08;11.5;;;4.5;;
59653;SDS011;66556;52.008;5.432;2023-04-02T08:15:45;11.5;;;4.3;;
59653;SDS011;66556;52.008;5.432;2023-04-02T08:18:59;8.71;;;4.2;;
59653;SDS011;66556;52.008;5.432;2023-04-02T08:20:35;8.31;;;4.5;;
59653;SDS011;66556;52.008;5.432;2023-04-02T08:22:12;7.5;;;4.0;;
59653;SDS011;66556;52.008;5.432;2023-04-02T08:25:26;11.0;;;4.2;;
59653;SDS011;66556;52.008;5.432;2023-04-02T08:27:03;10.4;;;4.61;;
59653;SDS011;66556;52.008;5.432;2023-04-02T08:28:40;8.5;;;4.5;;
59653;SDS011;66556;52.008;5.432;2023-04-02T08:31:54;8.1;;;4.2;;
59653;SDS011;66556;52.008;5.432;2023-04-02T08:33:30;12.0;;;4.5;;
59653;SDS011;66556;52.008;5.432;2023-04-02T08:35:07;6.5;;;3.9;;
59653;SDS011;66556;52.008;5.432;2023-04-02T08:39:57;10.1;;;4.2;;
59653;SDS011;66556;52.008;5.432;2023-04-02T08:41:34;7.4;;;3.7;;
59653;SDS011;66556;52.008;5.432;2023-04-02T08:43:15;10.1;;;4.0;;
59653;SDS011;66556;52.008;5.432;2023-04-02T08:45:09;8.1;;;3.8;;
59653;SDS011;66556;52.008;5.432;2023-04-02T08:48:37;8.6;;;3.5;;
59653;SDS011;66556;52.008;5.432;2023-04-02T08:50:21;9.81;;;4.0;;
59653;SDS011;66556;52.008;5.432;2023-04-02T08:52:07;8.2;;;3.5;;
59653;SDS011;66556;52.008;5.432;2023-04-02T08:53:58;8.2;;;3.8;;
59653;SDS011;66556;52.008;5.432;2023-04-02T08:55:39;9.21;;;3.6;;
59653;SDS011;66556;52.008;5.432;2023-04-02T08:59:14;9.4;;;3.6;;
59653;SDS011;66556;52.008;5.432;2023-04-02T09:01:00;7.0;;;3.3;;
59653;SDS011;66556;52.008;5.432;2023-04-02T09:02:39;7.4;;;3.9;;
59653;SDS011;66556;52.008;5.432;2023-04-02T09:04:22;7.6;;;3.5;;
59653;SDS011;66556;52.008;5.432;2023-04-02T09:06:00;8.31;;;3.4;;
59653;SDS011;66556;52.008;5.432;2023-04-02T09:09:15;7.1;;;3.5;;
59653;SDS011;66556;52.008;5.432;2023-04-02T09:10:54;5.2;;;2.8;;
59653;SDS011;66556;52.008;5.432;2023-04-02T09:12:37;5.5;;;2.8;;
59653;SDS011;66556;52.008;5.432;2023-04-02T09:14:18;6.9;;;3.1;;
59653;SDS011;66556;52.008;5.432;2023-04-02T09:17:43;8.71;;;3.2;;
59653;SDS011;66556;52.008;5.432;2023-04-02T09:19:21;8.6;;;3.2;;
59653;SDS011;66556;52.008;5.432;2023-04-02T09:21:00;8.5;;;3.3;;
59653;SDS011;66556;52.008;5.432;2023-04-02T09:22:48;7.4;;;2.9;;
59653;SDS011;66556;52.008;5.432;2023-04-02T09:26:10;6.0;;;3.2;;
59653;SDS011;66556;52.008;5.432;2023-04-02T09:27:57;7.5;;;2.9;;
59653;SDS011;66556;52.008;5.432;2023-04-02T09:29:38;6.4;;;2.7;;
59653;SDS011;66556;52.008;5.432;2023-04-02T09:31:19;6.6;;;2.8;;
59653;SDS011;66556;52.008;5.432;2023-04-02T09:34:41;5.3;;;2.21;;
59653;SDS011;66556;52.008;5.432;2023-04-02T09:36:19;7.0;;;2.7;;
59653;SDS011;66556;52.008;5.432;2023-04-02T09:38:20;5.4;;;2.21;;
59653;SDS011;66556;52.008;5.432;2023-04-02T09:40:08;6.4;;;2.4;;
59653;SDS011;66556;52.008;5.432;2023-04-02T09:42:04;9.81;;;2.9;;
59653;SDS011;66556;52.008;5.432;2023-04-02T09:43:43;7.3;;;2.31;;
59653;SDS011;66556;52.008;5.432;2023-04-02T09:46:59;6.5;;;2.6;;
59653;SDS011;66556;52.008;5.432;2023-04-02T09:48:37;6.9;;;2.4;;
59653;SDS011;66556;52.008;5.432;2023-04-02T09:50:23;7.5;;;2.7;;
59653;SDS011;66556;52.008;5.432;2023-04-02T09:52:06;6.6;;;2.5;;
59653;SDS011;66556;52.008;5.432;2023-04-02T09:54:11;5.0;;;2.1;;
59653;SDS011;66556;52.008;5.432;2023-04-02T09:57:44;5.8;;;2.4;;
59653;SDS011;66556;52.008;5.432;2023-04-02T09:59:21;3.2;;;1.7;;
59653;SDS011;66556;52.008;5.432;2023-04-02T10:00:58;7.4;;;2.4;;
59653;SDS011;66556;52.008;5.432;2023-04-02T10:02:36;7.5;;;2.21;;
59653;SDS011;66556;52.008;5.432;2023-04-02T10:06:13;6.2;;;2.21;;
59653;SDS011;66556;52.008;5.432;2023-04-02T10:07:51;7.8;;;2.1;;
59653;SDS011;66556;52.008;5.432;2023-04-02T10:09:29;4.8;;;2.0;;
59653;SDS011;66556;52.008;5.432;2023-04-02T10:11:09;4.8;;;2.0;;
59653;SDS011;66556;52.008;5.432;2023-04-02T10:12:50;5.3;;;1.9;;
59653;SDS011;66556;52.008;5.432;2023-04-02T10:18:01;6.1;;;2.0;;
59653;SDS011;66556;52.008;5.432;2023-04-02T10:19:44;4.1;;;1.7;;
59653;SDS011;66556;52.008;5.432;2023-04-02T10:21:25;4.41;;;1.8;;
59653;SDS011;66556;52.008;5.432;2023-04-02T10:24:50;5.5;;;2.0;;
59653;SDS011;66556;52.008;5.432;2023-04-02T10:26:31;5.4;;;2.0;;
59653;SDS011;66556;52.008;5.432;2023-04-02T10:28:34;4.3;;;1.6;;
59653;SDS011;66556;52.008;5.432;2023-04-02T10:30:25;4.7;;;1.9;;
59653;SDS011;66556;52.008;5.432;2023-04-02T10:32:20;6.7;;;2.0;;
59653;SDS011;66556;52.008;5.432;2023-04-02T10:34:05;5.6;;;1.6;;
59653;SDS011;66556;52.008;5.432;2023-04-02T10:35:52;5.6;;;1.8;;
59653;SDS011;66556;52.008;5.432;2023-04-02T10:40:23;4.7;;;1.8;;
59653;SDS011;66556;52.008;5.432;2023-04-02T10:43:53;5.6;;;1.6;;
59653;SDS011;66556;52.008;5.432;2023-04-02T10:45:58;4.3;;;1.6;;
59653;SDS011;66556;52.008;5.432;2023-04-02T10:47:41;6.5;;;1.3;;
59653;SDS011;66556;52.008;5.432;2023-04-02T10:49:27;4.7;;;1.8;;
59653;SDS011;66556;52.008;5.432;2023-04-02T10:51:18;5.5;;;2.1;;
59653;SDS011;66556;52.008;5.432;2023-04-02T10:53:10;6.6;;;1.9;;
59653;SDS011;66556;52.008;5.432;2023-04-02T10:54:51;7.7;;;1.9;;
59653;SDS011;66556;52.008;5.432;2023-04-02T10:58:17;6.5;;;1.9;;
59653;SDS011;66556;52.008;5.432;2023-04-02T10:59:59;4.0;;;1.8;;
59653;SDS011;66556;52.008;5.432;2023-04-02T11:01:44;5.9;;;1.8;;
59653;SDS011;66556;52.008;5.432;2023-04-02T11:03:27;5.3;;;1.8;;
59653;SDS011;66556;52.008;5.432;2023-04-02T11:05:12;5.11;;;2.0;;
59653;SDS011;66556;52.008;5.432;2023-04-02T11:08:37;6.3;;;1.9;;
59653;SDS011;66556;52.008;5.432;2023-04-02T11:10:17;5.0;;;1.8;;
59653;SDS011;66556;52.008;5.432;2023-04-02T11:11:56;7.5;;;2.0;;
59653;SDS011;66556;52.008;5.432;2023-04-02T11:13:39;5.2;;;1.7;;
59653;SDS011;66556;52.008;5.432;2023-04-02T11:17:04;5.5;;;1.7;;
59653;SDS011;66556;52.008;5.432;2023-04-02T11:18:40;7.0;;;2.31;;
59653;SDS011;66556;52.008;5.432;2023-04-02T11:20:54;6.2;;;2.4;;
59653;SDS011;66556;52.008;5.432;2023-04-02T11:22:39;6.2;;;2.1;;
59653;SDS011;66556;52.008;5.432;2023-04-02T11:24:24;5.11;;;1.7;;
59653;SDS011;66556;52.008;5.432;2023-04-02T11:26:39;5.8;;;2.1;;
59653;SDS011;66556;52.008;5.432;2023-04-02T11:28:23;6.1;;;2.0;;
59653;SDS011;66556;52.008;5.432;2023-04-02T11:32:21;6.5;;;1.9;;
59653;SDS011;66556;52.008;5.432;2023-04-02T11:34:13;6.0;;;2.0;;
59653;SDS011;66556;52.008;5.432;2023-04-02T11:35:51;3.9;;;1.6;;
59653;SDS011;66556;52.008;5.432;2023-04-02T11:37:30;4.41;;;1.6;;
59653;SDS011;66556;52.008;5.432;2023-04-02T11:39:09;5.4;;;1.9;;
59653;SDS011;66556;52.008;5.432;2023-04-02T11:40:46;4.8;;;1.7;;
59653;SDS011;66556;52.008;5.432;2023-04-02T11:44:17;5.3;;;1.8;;
59653;SDS011;66556;52.008;5.432;2023-04-02T11:45:58;5.0;;;1.7;;
59653;SDS011;66556;52.008;5.432;2023-04-02T11:47:36;5.11;;;1.9;;
59653;SDS011;66556;52.008;5.432;2023-04-02T11:52:49;5.5;;;1.8;;
59653;SDS011;66556;52.008;5.432;2023-04-02T11:54:35;5.6;;;1.7;;
59653;SDS011;66556;52.008;5.432;2023-04-02T11:56:17;5.9;;;1.8;;
59653;SDS011;66556;52.008;5.432;2023-04-02T11:57:59;6.5;;;1.8;;
59653;SDS011;66556;52.008;5.432;2023-04-02T12:00:14;4.5;;;1.8;;
59653;SDS011;66556;52.008;5.432;2023-04-02T12:02:05;4.2;;;1.8;;
59653;SDS011;66556;52.008;5.432;2023-04-02T12:04:00;4.7;;;1.7;;
59653;SDS011;66556;52.008;5.432;2023-04-02T12:08:02;7.1;;;1.7;;
59653;SDS011;66556;52.008;5.432;2023-04-02T12:10:14;4.61;;;1.7;;
59653;SDS011;66556;52.008;5.432;2023-04-02T12:13:49;5.9;;;1.9;;
59653;SDS011;66556;52.008;5.432;2023-04-02T12:15:31;5.4;;;1.9;;
59653;SDS011;66556;52.008;5.432;2023-04-02T12:17:23;6.8;;;1.8;;
59653;SDS011;66556;52.008;5.432;2023-04-02T12:19:06;5.0;;;1.8;;
59653;SDS011;66556;52.008;5.432;2023-04-02T12:20:45;5.5;;;1.9;;
59653;SDS011;66556;52.008;5.432;2023-04-02T12:24:05;4.7;;;1.6;;
59653;SDS011;66556;52.008;5.432;2023-04-02T12:25:54;5.2;;;1.7;;
59653;SDS011;66556;52.008;5.432;2023-04-02T12:27:35;5.2;;;1.7;;
59653;SDS011;66556;52.008;5.432;2023-04-02T12:29:16;5.0;;;1.5;;
59653;SDS011;66556;52.008;5.432;2023-04-02T12:31:10;6.7;;;1.8;;
59653;SDS011;66556;52.008;5.432;2023-04-02T12:34:27;3.4;;;1.4;;
59653;SDS011;66556;52.008;5.432;2023-04-02T12:36:13;4.0;;;1.4;;
59653;SDS011;66556;52.008;5.432;2023-04-02T12:37:54;5.2;;;1.7;;
59653;SDS011;66556;52.008;5.432;2023-04-02T12:39:31;5.9;;;1.7;;
59653;SDS011;66556;52.008;5.432;2023-04-02T12:42:57;5.8;;;1.6;;
59653;SDS011;66556;52.008;5.432;2023-04-02T12:44:33;5.11;;;1.3;;
59653;SDS011;66556;52.008;5.432;2023-04-02T12:46:11;4.2;;;1.6;;
59653;SDS011;66556;52.008;5.432;2023-04-02T12:47:50;4.2;;;1.6;;
59653;SDS011;66556;52.008;5.432;2023-04-02T12:51:10;4.91;;;1.4;;
59653;SDS011;66556;52.008;5.432;2023-04-02T12:52:47;4.41;;;1.5;;
59653;SDS011;66556;52.008;5.432;2023-04-02T12:54:25;4.8;;;1.8;;
59653;SDS011;66556;52.008;5.432;2023-04-02T12:56:03;5.11;;;1.5;;
59653;SDS011;66556;52.008;5.432;2023-04-02T12:59:25;3.7;;;1.3;;
59653;SDS011;66556;52.008;5.432;2023-04-02T13:01:13;5.7;;;1.8;;